Aviation Digital Data Service (ADDS)

Output produced by METARs form (0954 UTC 23 April 2017)
found at http://www.aviationweather.gov/adds/metars/
 
RKSG 230858Z AUTO 27012G19KT 10SM CLR 20/M01 A3000 RMK AO2 SLP162 T01971013 55002 $
TAF AMD RKSG 230917Z 2309/2410 27012KT 9999 SKC QNH2999INS 
     BECMG 2314/2315 VRB06KT 4800 HZ FEW200 QNH3005INS 
     BECMG 2400/2401 20009KT 8000 HZ FEW200 QNH3005INS TX22/2406Z TN05/2323Z
       
RKTU 230900Z 24012KT CAVOK 20/01 Q1015 NOSIG
TAF RKTU 230500Z 2306/2412 24006KT 9999 SCT030 TN04/2321Z TX23/2406Z
       
RKTN 230900Z 20005KT CAVOK 23/01 Q1014 NOSIG
TAF RKTN 230500Z 2306/2412 30006KT 9999 SCT040 SCT200 TX24/2307Z TN09/2321Z
       
RKPK 230930Z 20009KT CAVOK 17/12 Q1017 NOSIG
TAF RKPK 230500Z 2306/2412 18006KT 9999 SCT030 SCT200 TX20/2406Z TN08/2321Z 
     BECMG 2308/2309 30006KT
       
RKSS 230900Z 28007KT CAVOK 17/M02 Q1016 NOSIG
TAF RKSS 230500Z 2306/2412 25010KT CAVOK TN06/2321Z TX21/2406Z 
     BECMG 2309/2310 19006KT 
     BECMG 2314/2315 04005KT 
     BECMG 2323/2324 18007KT 
     TEMPO 2403/2408 22015G25KT
       
RKSI 230930Z 23006KT 200V270 CAVOK 14/02 Q1017 NOSIG
TAF RKSI 230500Z 2306/2412 23010KT CAVOK TN07/2320Z TX20/2405Z 
     BECMG 2312/2313 16007KT 6000 NSC 
     BECMG 2402/2403 22015G25KT CAVOK 
     BECMG 2410/2411 21008KT 6000 NSC
       
RKPC 230900Z 04004KT 350V060 CAVOK 16/07 Q1018 NOSIG
TAF RKPC 230500Z 2306/2412 36005KT CAVOK TN10/2321Z TX18/2405Z 
     BECMG 2310/2311 17005KT 
     BECMG 2400/2401 35005KT 
     BECMG 2405/2406 27005KT 7000 SCT030 BKN180 
     BECMG 2410/2411 16005KT
       
RKJK 230858Z AUTO 27008KT 10SM CLR 15/04 A3003 RMK AO2 SLP174 T01540035 55006 $
TAF RKJK 222311Z 2223/2405 20009KT 9999 SKC QNH3004INS 
     BECMG 2317/2318 VRB06KT 9000 BR FEW200 QNH3007INS 
     BECMG 2402/2403 22009KT 9999 NSW FEW200 QNH3011INS TX19/2306Z TN08/2321Z
       
RKSO 230858Z 28008KT 7SM FEW200 20/M06 A3001 RMK AO2A SLPNO WND DATA ESTMD ALSTG ESTMD $
TAF RKSO 230300Z 2303/2409 VRB06KT 9999 SKC QNH3000INS 
     BECMG 2314/2315 VRB06KT 6000 HZ FEW200 QNH3005INS 
     BECMG 2400/2401 20009KT 9000 HZ FEW200 QNH3005INS TX22/2306Z TN07/2323Z
       
RKSM 230900Z 29008KT 9999 FEW200 19/00 A3001 RMK SLP162 8/008 9/001
TAF RKSM 230500Z 2306/2412 22006KT 9999 SCT200 WND 24012KT AFT 2303 TN08/2321Z TX23/2406Z
       
RKNY 230900Z 23008KT 190V250 CAVOK 22/M02 Q1012 WS ALL RWY NOSIG
TAF RKNY 230500Z 2306/2412 12010KT CAVOK TN11/2321Z TX23/2405Z 
     BECMG 2307/2308 22008KT 
     BECMG 2403/2404 10010KT 
     BECMG 2406/2407 23010KT